Terminal Aerodrome Forecast
Issued by NWS

Home | Current Version | Previous Version | Graphics & Text | Print | Product List | Glossary On
Versions: 1 2 3 4 5 6 7 8 9 10 11 12 13 14 15 16 17 18 19 20 21 22 23
000
FTUS45 KGGW 271720
TAFGDV
TAF
KGDV 271720Z 2718/2818 30016G25KT P6SM BKN130
     FM280000 31014G27KT P6SM SCT110
     FM280600 30011KT P6SM FEW120
     FM281100 29007KT P6SM FEW200=

USA.gov is the U.S. government's official web portal to all federal, state and local government web resources and services.